createdAt,value
2018-08-06T00:00:19.113Z,2.63
2018-08-06T00:02:47.329Z,1.00
2018-08-06T00:05:15.697Z,0.67
2018-08-06T00:07:43.921Z,1.00
2018-08-06T00:10:13.822Z,1.00
2018-08-06T00:12:42.504Z,1.00
2018-08-06T00:15:12.012Z,1.43
2018-08-06T00:17:40.865Z,0.70
2018-08-06T00:20:10.494Z,0.97
2018-08-06T00:22:39.232Z,3.50
2018-08-06T00:25:08.795Z,0.80
2018-08-06T00:27:37.449Z,1.03
2018-08-06T00:30:08.303Z,0.90
2018-08-06T00:32:36.555Z,0.73
2018-08-06T00:35:05.269Z,1.10
2018-08-06T00:37:33.626Z,1.63
2018-08-06T00:40:01.897Z,2.90
2018-08-06T00:42:30.103Z,1.30
2018-08-06T00:44:58.386Z,1.83
2018-08-06T00:47:26.368Z,1.27
2018-08-06T00:49:54.559Z,1.50
2018-08-06T00:52:22.779Z,0.90
2018-08-06T00:54:50.956Z,2.87
2018-08-06T00:57:19.268Z,1.43
2018-08-06T00:59:47.462Z,1.40
2018-08-06T01:02:15.694Z,1.10
2018-08-06T01:04:43.665Z,1.03
2018-08-06T01:07:11.865Z,1.43
2018-08-06T01:09:40.070Z,0.80
2018-08-06T01:12:08.283Z,0.80
2018-08-06T01:14:36.519Z,2.30
2018-08-06T01:17:04.777Z,0.60
2018-08-06T01:19:33.002Z,2.00
2018-08-06T01:22:01.251Z,1.10
2018-08-06T01:24:29.445Z,0.97
2018-08-06T01:26:58.089Z,1.00
2018-08-06T01:29:26.280Z,1.43
2018-08-06T01:31:54.482Z,0.70
2018-08-06T01:34:22.726Z,1.03
2018-08-06T01:36:50.961Z,1.90
2018-08-06T01:39:19.173Z,0.90
2018-08-06T01:41:47.475Z,1.17
2018-08-06T01:44:15.716Z,0.80
2018-08-06T01:46:43.921Z,2.40
2018-08-06T01:49:12.141Z,0.77
2018-08-06T01:51:40.381Z,0.73
2018-08-06T01:54:08.602Z,1.23
2018-08-06T01:56:36.850Z,0.80
2018-08-06T01:59:05.109Z,1.13
2018-08-06T02:01:33.342Z,0.83
2018-08-06T02:04:01.631Z,0.80
2018-08-06T02:06:29.874Z,1.17
2018-08-06T02:08:58.092Z,3.10
2018-08-06T02:11:26.654Z,1.27
2018-08-06T02:13:54.870Z,1.33
2018-08-06T02:16:23.954Z,1.17
2018-08-06T02:18:52.409Z,1.00
2018-08-06T02:21:20.613Z,0.90
2018-08-06T02:23:48.853Z,0.90
2018-08-06T02:26:17.076Z,1.10
2018-08-06T02:28:45.419Z,1.97
2018-08-06T02:31:13.685Z,1.10
2018-08-06T02:33:41.967Z,1.03
2018-08-06T02:36:10.141Z,5.23
2018-08-06T02:38:38.418Z,1.67
2018-08-06T02:41:06.663Z,1.37
2018-08-06T02:43:34.615Z,1.50
2018-08-06T02:46:02.838Z,2.27
2018-08-06T02:48:31.029Z,1.30
2018-08-06T02:50:59.343Z,1.30
2018-08-06T02:53:27.651Z,0.90
2018-08-06T02:58:30.774Z,0.70
2018-08-06T03:00:59.035Z,0.77
2018-08-06T03:03:27.302Z,0.93
2018-08-06T03:05:55.533Z,0.90
2018-08-06T03:08:23.767Z,1.17
2018-08-06T03:10:51.981Z,1.03
2018-08-06T03:13:20.280Z,0.93
2018-08-06T03:15:48.519Z,1.30
2018-08-06T03:18:16.730Z,3.10
2018-08-06T03:20:44.991Z,1.00
2018-08-06T03:23:13.207Z,0.90
2018-08-06T03:25:41.429Z,0.90
2018-08-06T03:28:09.696Z,0.97
2018-08-06T03:30:37.980Z,0.97
2018-08-06T03:33:06.262Z,1.00
2018-08-06T03:35:34.470Z,1.13
2018-08-06T03:38:02.750Z,0.77
2018-08-06T03:40:31.042Z,1.60
2018-08-06T03:42:59.298Z,1.20
2018-08-06T03:45:27.505Z,1.30
2018-08-06T03:47:55.726Z,0.90
2018-08-06T03:50:23.914Z,2.53
2018-08-06T03:52:52.675Z,2.40
2018-08-06T03:55:20.878Z,1.17
2018-08-06T03:57:49.159Z,1.40
2018-08-06T04:00:17.345Z,0.77
2018-08-06T04:02:45.587Z,3.30
2018-08-06T04:05:14.943Z,1.43
2018-08-06T04:07:43.142Z,0.93
2018-08-06T04:10:14.346Z,1.13
2018-08-06T04:12:42.574Z,0.93
2018-08-06T04:15:11.381Z,1.00
2018-08-06T04:17:39.997Z,0.93
2018-08-06T04:20:09.303Z,1.27
2018-08-06T04:22:37.584Z,0.90
2018-08-06T04:25:05.904Z,1.30
2018-08-06T04:27:34.265Z,1.00
2018-08-06T04:30:02.490Z,2.97
2018-08-06T04:32:30.738Z,3.80
2018-08-06T04:34:58.993Z,1.10
2018-08-06T04:37:27.202Z,1.83
2018-08-06T04:39:55.442Z,1.03
2018-08-06T04:42:23.694Z,2.00
2018-08-06T04:44:51.894Z,1.50
2018-08-06T04:47:20.162Z,1.10
2018-08-06T04:49:48.361Z,1.00
2018-08-06T04:52:16.639Z,1.83
2018-08-06T04:54:44.884Z,1.23
2018-08-06T04:57:13.164Z,3.30
2018-08-06T04:59:41.436Z,1.30
2018-08-06T05:02:09.651Z,1.30
2018-08-06T05:04:37.911Z,1.27
2018-08-06T05:07:06.117Z,0.90
2018-08-06T05:09:40.650Z,1.20
2018-08-06T05:12:08.923Z,2.17
2018-08-06T05:14:38.090Z,1.17
2018-08-06T05:17:06.881Z,1.13
2018-08-06T05:19:35.830Z,1.70
2018-08-06T05:22:04.112Z,1.30
2018-08-06T05:24:32.694Z,1.63
2018-08-06T05:27:00.929Z,0.77
2018-08-06T05:29:29.167Z,4.50
2018-08-06T05:31:57.393Z,1.10
2018-08-06T05:34:25.593Z,1.43
2018-08-06T05:36:53.801Z,0.97
2018-08-06T05:39:22.146Z,3.37
2018-08-06T05:41:50.373Z,1.37
2018-08-06T05:44:18.622Z,1.30
2018-08-06T05:46:46.890Z,0.90
2018-08-06T05:49:15.099Z,1.60
2018-08-06T05:51:43.698Z,1.17
2018-08-06T05:54:11.922Z,9.00
2018-08-06T05:56:40.166Z,1.10
2018-08-06T05:59:08.382Z,1.53
2018-08-06T06:01:36.671Z,1.63
2018-08-06T06:04:05.116Z,1.20
2018-08-06T06:06:33.503Z,1.23
2018-08-06T06:09:02.010Z,0.90
2018-08-06T06:11:30.222Z,0.83
2018-08-06T06:13:58.452Z,1.07
2018-08-06T06:16:26.671Z,1.70
2018-08-06T06:18:54.622Z,1.10
2018-08-06T06:21:22.842Z,1.07
2018-08-06T06:23:51.137Z,0.80
2018-08-06T06:26:19.362Z,1.07
2018-08-06T06:28:47.666Z,1.20
2018-08-06T06:31:16.108Z,1.30
2018-08-06T06:33:44.426Z,1.10
2018-08-06T06:36:19.477Z,1.77
2018-08-06T06:38:47.801Z,2.77
2018-08-06T06:41:16.014Z,1.93
2018-08-06T06:43:44.286Z,2.77
2018-08-06T06:46:12.567Z,0.97
2018-08-06T06:48:41.321Z,0.80
2018-08-06T06:51:09.527Z,0.83
2018-08-06T06:53:37.781Z,2.83
2018-08-06T06:56:06.338Z,1.90
2018-08-06T06:58:34.617Z,4.47
2018-08-06T07:01:02.848Z,1.13
2018-08-06T07:03:31.090Z,0.90
2018-08-06T07:05:59.363Z,1.40
2018-08-06T07:08:27.585Z,1.33
2018-08-06T07:10:55.798Z,2.20
2018-08-06T07:13:24.395Z,0.90
2018-08-06T07:15:52.677Z,1.17
2018-08-06T07:18:20.966Z,0.93
2018-08-06T07:20:49.248Z,1.37
2018-08-06T07:23:17.583Z,0.80
2018-08-06T07:25:45.799Z,0.97
2018-08-06T07:28:14.243Z,0.90
2018-08-06T07:30:42.402Z,1.83
2018-08-06T07:33:10.638Z,1.53
2018-08-06T07:35:38.886Z,2.53
2018-08-06T07:38:07.189Z,0.97
2018-08-06T07:40:35.399Z,1.33
2018-08-06T07:43:03.674Z,3.37
2018-08-06T07:45:31.815Z,0.90
2018-08-06T07:48:00.047Z,1.17
2018-08-06T07:50:28.286Z,1.43
2018-08-06T07:52:56.509Z,3.10
2018-08-06T07:55:24.740Z,2.27
2018-08-06T07:57:53.134Z,1.23
2018-08-06T08:00:22.623Z,8.03
2018-08-06T08:02:50.921Z,1.43
2018-08-06T08:05:19.630Z,3.17
2018-08-06T08:07:48.324Z,1.30
2018-08-06T08:10:19.458Z,1.27
2018-08-06T08:12:47.748Z,1.20
2018-08-06T08:15:18.854Z,1.27
2018-08-06T08:17:47.518Z,1.10
2018-08-06T08:20:16.788Z,1.03
2018-08-06T08:22:45.045Z,1.30
2018-08-06T08:25:14.750Z,1.10
2018-08-06T08:27:43.218Z,1.10
2018-08-06T08:30:13.585Z,1.07
2018-08-06T08:32:41.803Z,1.20
2018-08-06T08:35:10.766Z,1.72
2018-08-06T08:37:39.286Z,2.15
2018-08-06T08:40:11.413Z,1.20
2018-08-06T08:42:39.712Z,1.25
2018-08-06T08:45:10.270Z,1.42
2018-08-06T08:47:38.890Z,11.75
2018-08-06T08:50:09.243Z,156.78
2018-08-06T08:52:37.754Z,448.37
2018-08-06T08:55:06.074Z,712.88
2018-08-06T08:57:34.354Z,909.98
2018-08-06T09:00:02.583Z,958.90
2018-08-06T09:02:30.595Z,955.25
2018-08-06T09:04:58.801Z,850.45
2018-08-06T09:07:27.054Z,729.45
2018-08-06T09:09:55.262Z,517.75
2018-08-06T09:12:23.555Z,221.70
2018-08-06T09:14:51.848Z,37.90
2018-08-06T09:17:20.083Z,7.62
2018-08-06T09:19:48.290Z,1.50
2018-08-06T09:22:16.536Z,1.47
2018-08-06T09:24:44.740Z,1.40
2018-08-06T09:27:12.952Z,1.30
2018-08-06T09:29:41.437Z,2.10
2018-08-06T09:32:10.186Z,2.27
2018-08-06T09:34:38.146Z,1.12
2018-08-06T09:37:06.373Z,1.22
2018-08-06T09:39:34.600Z,3.87
2018-08-06T09:42:02.915Z,2.05
2018-08-06T09:44:31.168Z,1.52
2018-08-06T09:46:59.501Z,1.37
2018-08-06T09:49:27.711Z,1.10
2018-08-06T09:51:55.964Z,3.72
2018-08-06T09:54:24.220Z,1.52
2018-08-06T09:56:52.403Z,1.87
2018-08-06T09:59:20.722Z,6.15
2018-08-06T10:01:55.190Z,2.62
2018-08-06T10:04:23.497Z,1.50
2018-08-06T10:06:51.718Z,2.95
2018-08-06T10:09:20.008Z,1.12
2018-08-06T10:11:48.427Z,1.27
2018-08-06T10:14:16.706Z,1.50
2018-08-06T10:16:45.302Z,1.47
2018-08-06T10:19:13.570Z,3.17
2018-08-06T10:21:41.826Z,2.08
2018-08-06T10:24:10.055Z,1.32
2018-08-06T10:26:38.345Z,1.65
2018-08-06T10:29:06.563Z,2.12
2018-08-06T10:31:34.783Z,1.35
2018-08-06T10:34:03.134Z,1.42
2018-08-06T10:36:31.343Z,2.87
2018-08-06T10:38:59.690Z,1.57
2018-08-06T10:41:28.033Z,1.57
2018-08-06T10:43:56.301Z,1.50
2018-08-06T10:46:24.581Z,1.35
2018-08-06T10:48:52.806Z,1.60
2018-08-06T10:51:21.047Z,1.30
2018-08-06T10:53:49.403Z,1.62
2018-08-06T10:56:17.561Z,4.97
2018-08-06T10:58:45.797Z,1.45
2018-08-06T11:01:14.041Z,1.65
2018-08-06T11:03:42.341Z,1.40
2018-08-06T11:06:10.582Z,2.45
2018-08-06T11:08:38.858Z,1.40
2018-08-06T11:11:07.271Z,2.00
2018-08-06T11:13:35.280Z,1.35
2018-08-06T11:16:03.609Z,1.82
2018-08-06T11:18:31.850Z,1.85
2018-08-06T11:21:00.504Z,1.60
2018-08-06T11:23:28.805Z,1.05
2018-08-06T11:25:57.086Z,1.82
2018-08-06T11:28:25.374Z,1.30
2018-08-06T11:30:53.605Z,1.60
2018-08-06T11:33:21.851Z,2.22
2018-08-06T11:35:50.414Z,1.25
2018-08-06T11:38:18.634Z,0.93
2018-08-06T11:40:46.886Z,5.03
2018-08-06T11:43:15.093Z,1.40
2018-08-06T11:45:43.314Z,1.10
2018-08-06T11:48:11.540Z,1.30
2018-08-06T11:50:39.769Z,1.85
2018-08-06T11:53:08.055Z,1.22
2018-08-06T11:55:36.331Z,1.32
2018-08-06T11:58:04.563Z,2.50
2018-08-06T12:00:32.840Z,1.27
2018-08-06T12:03:01.109Z,1.02
2018-08-06T12:05:29.604Z,1.15
2018-08-06T12:07:57.876Z,1.67
2018-08-06T12:10:26.139Z,1.72
2018-08-06T12:12:54.373Z,1.25
2018-08-06T12:15:22.587Z,1.70
2018-08-06T12:17:50.847Z,1.22
2018-08-06T12:20:20.182Z,1.45
2018-08-06T12:22:49.561Z,1.47
2018-08-06T12:25:18.307Z,1.30
2018-08-06T12:27:47.242Z,1.05
2018-08-06T12:30:17.764Z,3.05
2018-08-06T12:32:46.768Z,2.65
2018-08-06T12:35:15.554Z,2.40
2018-08-06T12:37:44.054Z,1.70
2018-08-06T12:40:15.702Z,1.62
2018-08-06T12:42:44.072Z,1.25
2018-08-06T12:45:13.084Z,1.10
2018-08-06T12:47:41.634Z,2.70
2018-08-06T12:50:11.014Z,1.42
2018-08-06T12:52:40.176Z,1.10
2018-08-06T12:55:09.945Z,1.60
2018-08-06T12:57:38.645Z,1.65
2018-08-06T13:00:11.504Z,1.40
2018-08-06T13:02:39.498Z,2.35
2018-08-06T13:05:07.792Z,1.42
2018-08-06T13:07:35.975Z,1.47
2018-08-06T13:10:04.520Z,1.57
2018-08-06T13:12:32.779Z,1.40
2018-08-06T13:15:01.022Z,1.60
2018-08-06T13:17:29.268Z,1.37
2018-08-06T13:19:57.550Z,2.27
2018-08-06T13:22:25.797Z,1.20
2018-08-06T13:24:54.043Z,1.22
2018-08-06T13:27:22.376Z,1.22
2018-08-06T13:29:50.579Z,1.30
2018-08-06T13:32:18.935Z,1.37
2018-08-06T13:34:47.171Z,2.17
2018-08-06T13:37:15.399Z,1.55
2018-08-06T13:39:43.614Z,1.17
2018-08-06T13:42:11.961Z,2.02
2018-08-06T13:44:40.255Z,1.10
2018-08-06T13:47:08.460Z,1.75
2018-08-06T13:49:36.691Z,1.32
2018-08-06T13:52:04.938Z,1.50
2018-08-06T13:54:33.133Z,1.60
2018-08-06T13:57:01.369Z,1.70
2018-08-06T13:59:29.761Z,1.47
2018-08-06T14:01:57.854Z,5.00
2018-08-06T14:04:26.093Z,1.65
2018-08-06T14:06:54.428Z,1.75
2018-08-06T14:09:22.761Z,1.50
2018-08-06T14:11:50.980Z,1.50
2018-08-06T14:14:19.264Z,1.77
2018-08-06T14:16:47.545Z,5.08
2018-08-06T14:19:15.787Z,2.37
2018-08-06T14:21:44.083Z,1.98
2018-08-06T14:24:12.372Z,2.17
2018-08-06T14:26:40.654Z,2.83
2018-08-06T14:29:08.886Z,2.55
2018-08-06T14:31:37.182Z,2.72
2018-08-06T14:34:05.761Z,3.25
2018-08-06T14:36:33.933Z,3.20
2018-08-06T14:39:02.154Z,4.05
2018-08-06T14:41:30.564Z,4.22
2018-08-06T14:43:58.818Z,3.87
2018-08-06T14:46:27.028Z,3.95
2018-08-06T14:48:55.277Z,5.20
2018-08-06T14:51:23.956Z,4.92
2018-08-06T14:53:52.170Z,4.37
2018-08-06T14:56:20.452Z,4.35
2018-08-06T14:58:48.713Z,4.75
2018-08-06T15:01:16.935Z,5.60
2018-08-06T15:03:45.185Z,4.95
2018-08-06T15:06:13.408Z,4.30
2018-08-06T15:08:41.649Z,5.10
2018-08-06T15:11:09.955Z,6.12
2018-08-06T15:13:38.129Z,5.62
2018-08-06T15:16:06.446Z,4.97
2018-08-06T15:18:34.675Z,4.25
2018-08-06T15:21:02.895Z,4.97
2018-08-06T15:23:31.205Z,6.75
2018-08-06T15:25:59.402Z,5.40
2018-08-06T15:28:27.682Z,6.17
2018-08-06T15:30:55.938Z,4.62
2018-08-06T15:33:24.206Z,5.90
2018-08-06T15:35:52.431Z,5.95
2018-08-06T15:38:21.013Z,5.53
2018-08-06T15:40:49.263Z,5.85
2018-08-06T15:43:17.521Z,6.80
2018-08-06T15:45:45.787Z,6.67
2018-08-06T15:48:14.036Z,5.72
2018-08-06T15:50:42.277Z,6.33
2018-08-06T15:53:10.513Z,7.42
2018-08-06T15:55:38.755Z,7.47
2018-08-06T15:58:07.003Z,10.35
2018-08-06T16:00:35.227Z,9.65
2018-08-06T16:03:03.451Z,8.33
2018-08-06T16:05:31.666Z,9.93
2018-08-06T16:07:59.941Z,9.28
2018-08-06T16:10:28.536Z,9.90
2018-08-06T16:12:56.763Z,10.13
2018-08-06T16:15:24.970Z,13.58
2018-08-06T16:17:53.193Z,14.73
2018-08-06T16:20:21.466Z,15.98
2018-08-06T16:22:49.710Z,15.78
2018-08-06T16:25:18.005Z,12.40
2018-08-06T16:27:46.241Z,13.50
2018-08-06T16:30:16.950Z,13.85
2018-08-06T16:32:46.286Z,12.68
2018-08-06T16:35:15.142Z,12.33
2018-08-06T16:37:43.405Z,10.63
2018-08-06T16:40:12.194Z,9.28
2018-08-06T16:42:40.631Z,8.10
2018-08-06T16:45:09.570Z,9.10
2018-08-06T16:47:38.602Z,9.20
2018-08-06T16:50:08.785Z,9.28
2018-08-06T16:52:37.149Z,9.75
2018-08-06T16:55:06.819Z,9.85
2018-08-06T16:57:35.166Z,10.15
2018-08-06T17:00:05.043Z,10.43
2018-08-06T17:02:33.263Z,7.70
2018-08-06T17:05:01.524Z,7.70
2018-08-06T17:07:29.818Z,7.03
2018-08-06T17:09:58.056Z,6.20
2018-08-06T17:12:26.358Z,7.62
2018-08-06T17:14:54.562Z,6.70
2018-08-06T17:17:22.925Z,5.75
2018-08-06T17:19:51.218Z,6.37
2018-08-06T17:22:19.533Z,6.05
2018-08-06T17:24:47.700Z,6.20
2018-08-06T17:27:15.940Z,4.78
2018-08-06T17:29:44.370Z,5.10
2018-08-06T17:32:12.710Z,6.00
2018-08-06T17:34:40.965Z,4.87
2018-08-06T17:37:09.237Z,4.95
2018-08-06T17:39:37.476Z,4.80
2018-08-06T17:42:05.852Z,4.95
2018-08-06T17:44:34.096Z,4.35
2018-08-06T17:47:02.366Z,4.08
2018-08-06T17:49:30.589Z,4.37
2018-08-06T17:51:58.848Z,5.58
2018-08-06T17:54:27.122Z,5.12
2018-08-06T17:56:55.364Z,5.90
2018-08-06T17:59:23.622Z,5.67
2018-08-06T18:01:51.867Z,6.95
2018-08-06T18:04:20.095Z,6.53
2018-08-06T18:06:48.329Z,5.80
2018-08-06T18:09:16.605Z,4.65
2018-08-06T18:11:46.866Z,5.45
2018-08-06T18:14:15.082Z,5.92
2018-08-06T18:16:43.307Z,5.42
2018-08-06T18:19:11.529Z,5.03
2018-08-06T18:21:39.805Z,4.65
2018-08-06T18:24:08.160Z,5.03
2018-08-06T18:26:36.346Z,4.42
2018-08-06T18:29:04.538Z,4.10
2018-08-06T18:31:32.852Z,4.08
2018-08-06T18:34:01.133Z,3.95
2018-08-06T18:36:29.302Z,4.15
2018-08-06T18:38:57.645Z,3.30
2018-08-06T18:41:25.883Z,2.77
2018-08-06T18:43:54.069Z,3.10
2018-08-06T18:46:22.417Z,3.20
2018-08-06T18:48:50.707Z,2.45
2018-08-06T18:51:19.057Z,5.05
2018-08-06T18:53:47.591Z,2.10
2018-08-06T18:56:15.791Z,2.00
2018-08-06T18:58:44.134Z,1.55
2018-08-06T19:01:12.345Z,2.00
2018-08-06T19:03:40.583Z,2.30
2018-08-06T19:06:08.851Z,1.82
2018-08-06T19:08:37.107Z,2.98
2018-08-06T19:11:05.302Z,1.70
2018-08-06T19:13:38.848Z,2.35
2018-08-06T19:16:07.305Z,9.40
2018-08-06T19:18:41.745Z,2.70
2018-08-06T19:21:10.237Z,2.37
2018-08-06T19:23:38.825Z,1.70
2018-08-06T19:26:07.059Z,2.08
2018-08-06T19:28:35.294Z,1.80
2018-08-06T19:31:08.905Z,3.87
2018-08-06T19:33:37.107Z,2.50
2018-08-06T19:36:05.387Z,2.00
2018-08-06T19:38:33.615Z,2.92
2018-08-06T19:41:02.020Z,3.17
2018-08-06T19:43:35.600Z,2.77
2018-08-06T19:46:03.814Z,2.10
2018-08-06T19:48:32.383Z,2.98
2018-08-06T19:51:00.588Z,1.92
2018-08-06T19:53:28.881Z,2.05
2018-08-06T19:56:02.407Z,2.85
2018-08-06T19:58:30.653Z,3.75
2018-08-06T20:00:58.911Z,2.67
2018-08-06T20:03:27.118Z,1.85
2018-08-06T20:05:55.326Z,2.87
2018-08-06T20:08:23.685Z,4.85
2018-08-06T20:10:51.886Z,3.12
2018-08-06T20:13:20.096Z,2.50
2018-08-06T20:15:48.350Z,2.25
2018-08-06T20:18:16.558Z,2.90
2018-08-06T20:20:44.784Z,2.17
2018-08-06T20:23:13.012Z,3.67
2018-08-06T20:25:41.198Z,9.00
2018-08-06T20:28:09.768Z,2.95
2018-08-06T20:30:37.957Z,3.15
2018-08-06T20:33:06.580Z,4.77
2018-08-06T20:35:34.809Z,2.70
2018-08-06T20:38:03.214Z,2.20
2018-08-06T20:40:31.509Z,2.47
2018-08-06T20:42:59.778Z,4.30
2018-08-06T20:45:27.988Z,3.20
2018-08-06T20:47:56.188Z,2.17
2018-08-06T20:50:24.463Z,2.10
2018-08-06T20:52:53.699Z,2.75
2018-08-06T20:55:21.891Z,2.83
2018-08-06T20:57:50.449Z,2.12
2018-08-06T21:00:21.053Z,2.90
2018-08-06T21:02:49.949Z,1.70
2018-08-06T21:05:18.239Z,2.60
2018-08-06T21:07:46.443Z,2.67
2018-08-06T21:10:15.536Z,3.50
2018-08-06T21:12:44.072Z,1.83
2018-08-06T21:15:13.380Z,1.73
2018-08-06T21:17:41.675Z,1.97
2018-08-06T21:20:12.162Z,1.93
2018-08-06T21:22:40.952Z,3.97
2018-08-06T21:25:10.314Z,2.60
2018-08-06T21:27:39.162Z,2.37
2018-08-06T21:30:09.891Z,3.20
2018-08-06T21:32:38.162Z,2.20
2018-08-06T21:35:06.449Z,2.17
2018-08-06T21:37:34.646Z,2.73
2018-08-06T21:40:02.915Z,1.73
2018-08-06T21:42:31.142Z,2.73
2018-08-06T21:44:59.606Z,2.70
2018-08-06T21:47:27.731Z,1.65
2018-08-06T21:49:56.225Z,1.87
2018-08-06T21:52:24.691Z,4.37
2018-08-06T21:54:52.956Z,1.90
2018-08-06T21:57:21.162Z,2.13
2018-08-06T21:59:49.481Z,1.77
2018-08-06T22:02:17.720Z,1.87
2018-08-06T22:04:45.937Z,2.37
2018-08-06T22:07:14.216Z,2.80
2018-08-06T22:09:42.415Z,1.90
2018-08-06T22:12:10.610Z,2.53
2018-08-06T22:14:38.834Z,2.20
2018-08-06T22:17:07.106Z,2.23
2018-08-06T22:19:35.330Z,2.33
2018-08-06T22:22:03.817Z,5.17
2018-08-06T22:24:32.063Z,2.53
2018-08-06T22:27:00.309Z,2.00
2018-08-06T22:29:28.510Z,2.50
2018-08-06T22:31:56.988Z,1.97
2018-08-06T22:34:25.002Z,3.87
2018-08-06T22:36:53.234Z,2.07
2018-08-06T22:39:21.418Z,1.83
2018-08-06T22:41:49.623Z,3.37
2018-08-06T22:44:17.851Z,3.37
2018-08-06T22:46:46.075Z,3.60
2018-08-06T22:49:14.305Z,2.10
2018-08-06T22:51:42.506Z,3.07
2018-08-06T22:54:10.803Z,3.27
2018-08-06T22:56:39.019Z,3.53
2018-08-06T22:59:07.229Z,7.80
2018-08-06T23:01:35.457Z,2.43
2018-08-06T23:04:03.730Z,2.20
2018-08-06T23:06:31.936Z,3.50
2018-08-06T23:09:00.204Z,2.27
2018-08-06T23:11:28.378Z,1.97
2018-08-06T23:13:56.632Z,2.47
2018-08-06T23:16:24.831Z,2.13
2018-08-06T23:18:53.065Z,2.57
2018-08-06T23:21:21.277Z,2.37
2018-08-06T23:23:49.536Z,2.40
2018-08-06T23:26:17.717Z,1.80
2018-08-06T23:28:45.910Z,3.63
2018-08-06T23:31:14.160Z,2.07
2018-08-06T23:33:42.410Z,1.87
2018-08-06T23:36:11.239Z,2.33
2018-08-06T23:38:39.536Z,1.83
2018-08-06T23:41:07.900Z,2.30
2018-08-06T23:43:36.108Z,1.50
2018-08-06T23:46:04.359Z,2.17
2018-08-06T23:48:33.474Z,1.67
2018-08-06T23:51:01.701Z,1.60
2018-08-06T23:53:29.970Z,1.87
2018-08-06T23:55:58.202Z,3.30
2018-08-06T23:58:26.783Z,2.27
